sensor_id;sensor_type;location;lat;lon;timestamp;P1;durP1;ratioP1;P2;durP2;ratioP2
20170;SDS011;10245;51.344;6.620;2023-07-13T00:01:53;2.83;;;1.60;;
20170;SDS011;10245;51.344;6.620;2023-07-13T00:04:18;8.15;;;1.75;;
20170;SDS011;10245;51.344;6.620;2023-07-13T00:06:44;4.35;;;1.50;;
20170;SDS011;10245;51.344;6.620;2023-07-13T00:09:09;4.57;;;1.80;;
20170;SDS011;10245;51.344;6.620;2023-07-13T00:11:33;5.22;;;1.70;;
20170;SDS011;10245;51.344;6.620;2023-07-13T00:13:56;4.55;;;1.90;;
20170;SDS011;10245;51.344;6.620;2023-07-13T00:16:20;6.43;;;2.00;;
20170;SDS011;10245;51.344;6.620;2023-07-13T00:18:44;6.78;;;1.98;;
20170;SDS011;10245;51.344;6.620;2023-07-13T00:21:07;8.75;;;1.98;;
20170;SDS011;10245;51.344;6.620;2023-07-13T00:23:31;8.20;;;1.95;;
20170;SDS011;10245;51.344;6.620;2023-07-13T00:25:56;4.15;;;1.90;;
20170;SDS011;10245;51.344;6.620;2023-07-13T00:28:20;5.70;;;1.75;;
20170;SDS011;10245;51.344;6.620;2023-07-13T00:30:43;5.43;;;1.90;;
20170;SDS011;10245;51.344;6.620;2023-07-13T00:33:08;9.73;;;1.95;;
20170;SDS011;10245;51.344;6.620;2023-07-13T00:35:39;4.88;;;1.75;;
20170;SDS011;10245;51.344;6.620;2023-07-13T00:38:06;8.60;;;2.10;;
20170;SDS011;10245;51.344;6.620;2023-07-13T00:40:29;4.90;;;1.70;;
20170;SDS011;10245;51.344;6.620;2023-07-13T00:42:56;5.72;;;1.75;;
20170;SDS011;10245;51.344;6.620;2023-07-13T00:48:39;3.92;;;1.67;;
20170;SDS011;10245;51.344;6.620;2023-07-13T00:51:03;4.80;;;2.10;;
20170;SDS011;10245;51.344;6.620;2023-07-13T00:53:27;4.68;;;1.80;;
20170;SDS011;10245;51.344;6.620;2023-07-13T00:55:53;5.20;;;1.90;;
20170;SDS011;10245;51.344;6.620;2023-07-13T00:58:20;3.80;;;1.75;;
20170;SDS011;10245;51.344;6.620;2023-07-13T01:00:43;4.55;;;1.90;;
20170;SDS011;10245;51.344;6.620;2023-07-13T01:03:08;3.90;;;1.70;;
20170;SDS011;10245;51.344;6.620;2023-07-13T01:05:32;3.80;;;1.52;;
20170;SDS011;10245;51.344;6.620;2023-07-13T01:07:57;6.97;;;2.17;;
20170;SDS011;10245;51.344;6.620;2023-07-13T01:10:22;5.43;;;2.00;;
20170;SDS011;10245;51.344;6.620;2023-07-13T01:12:46;4.50;;;1.75;;
20170;SDS011;10245;51.344;6.620;2023-07-13T01:18:00;6.22;;;2.10;;
20170;SDS011;10245;51.344;6.620;2023-07-13T01:20:25;4.93;;;1.80;;
20170;SDS011;10245;51.344;6.620;2023-07-13T01:22:50;4.10;;;1.85;;
20170;SDS011;10245;51.344;6.620;2023-07-13T01:25:15;6.60;;;2.25;;
20170;SDS011;10245;51.344;6.620;2023-07-13T01:27:38;5.25;;;1.75;;
20170;SDS011;10245;51.344;6.620;2023-07-13T01:30:03;5.57;;;1.80;;
20170;SDS011;10245;51.344;6.620;2023-07-13T01:32:29;5.65;;;1.98;;
20170;SDS011;10245;51.344;6.620;2023-07-13T01:34:54;7.65;;;1.60;;
20170;SDS011;10245;51.344;6.620;2023-07-13T01:37:17;4.70;;;1.70;;
20170;SDS011;10245;51.344;6.620;2023-07-13T01:39:42;6.63;;;2.00;;
20170;SDS011;10245;51.344;6.620;2023-07-13T01:42:05;6.35;;;2.22;;
20170;SDS011;10245;51.344;6.620;2023-07-13T01:44:29;7.20;;;1.77;;
20170;SDS011;10245;51.344;6.620;2023-07-13T01:46:52;5.32;;;1.90;;
20170;SDS011;10245;51.344;6.620;2023-07-13T01:49:15;6.40;;;1.70;;
20170;SDS011;10245;51.344;6.620;2023-07-13T01:51:38;3.88;;;1.48;;
20170;SDS011;10245;51.344;6.620;2023-07-13T01:54:02;6.97;;;2.00;;
20170;SDS011;10245;51.344;6.620;2023-07-13T01:56:26;5.03;;;1.88;;
20170;SDS011;10245;51.344;6.620;2023-07-13T01:58:50;4.13;;;1.92;;
20170;SDS011;10245;51.344;6.620;2023-07-13T02:01:15;5.72;;;1.90;;
20170;SDS011;10245;51.344;6.620;2023-07-13T02:03:38;6.85;;;1.80;;
20170;SDS011;10245;51.344;6.620;2023-07-13T02:06:01;7.72;;;2.20;;
20170;SDS011;10245;51.344;6.620;2023-07-13T02:08:25;5.90;;;1.80;;
20170;SDS011;10245;51.344;6.620;2023-07-13T02:10:48;5.97;;;1.92;;
20170;SDS011;10245;51.344;6.620;2023-07-13T02:13:13;7.38;;;2.03;;
20170;SDS011;10245;51.344;6.620;2023-07-13T02:15:38;6.57;;;2.00;;
20170;SDS011;10245;51.344;6.620;2023-07-13T02:18:03;6.03;;;1.85;;
20170;SDS011;10245;51.344;6.620;2023-07-13T02:20:26;7.25;;;2.38;;
20170;SDS011;10245;51.344;6.620;2023-07-13T02:22:49;7.88;;;2.05;;
20170;SDS011;10245;51.344;6.620;2023-07-13T02:25:15;5.50;;;2.30;;
20170;SDS011;10245;51.344;6.620;2023-07-13T02:27:38;5.82;;;1.90;;
20170;SDS011;10245;51.344;6.620;2023-07-13T02:30:05;8.95;;;2.35;;
20170;SDS011;10245;51.344;6.620;2023-07-13T02:32:30;4.35;;;1.85;;
20170;SDS011;10245;51.344;6.620;2023-07-13T02:34:53;5.28;;;2.00;;
20170;SDS011;10245;51.344;6.620;2023-07-13T02:37:16;6.55;;;1.90;;
20170;SDS011;10245;51.344;6.620;2023-07-13T02:39:40;8.70;;;2.10;;
20170;SDS011;10245;51.344;6.620;2023-07-13T02:42:03;5.68;;;2.05;;
20170;SDS011;10245;51.344;6.620;2023-07-13T02:44:28;3.97;;;1.70;;
20170;SDS011;10245;51.344;6.620;2023-07-13T02:46:52;5.18;;;1.92;;
20170;SDS011;10245;51.344;6.620;2023-07-13T02:49:16;4.53;;;2.13;;
20170;SDS011;10245;51.344;6.620;2023-07-13T02:51:39;9.25;;;2.22;;
20170;SDS011;10245;51.344;6.620;2023-07-13T02:54:03;4.45;;;2.03;;
20170;SDS011;10245;51.344;6.620;2023-07-13T02:56:30;3.80;;;1.98;;
20170;SDS011;10245;51.344;6.620;2023-07-13T02:58:55;4.35;;;2.10;;
20170;SDS011;10245;51.344;6.620;2023-07-13T03:01:19;8.20;;;2.00;;
20170;SDS011;10245;51.344;6.620;2023-07-13T03:03:45;5.07;;;2.08;;
20170;SDS011;10245;51.344;6.620;2023-07-13T03:06:09;6.50;;;2.00;;
20170;SDS011;10245;51.344;6.620;2023-07-13T03:08:40;7.85;;;2.30;;
20170;SDS011;10245;51.344;6.620;2023-07-13T03:11:04;9.13;;;2.22;;
20170;SDS011;10245;51.344;6.620;2023-07-13T03:13:32;5.22;;;2.13;;
20170;SDS011;10245;51.344;6.620;2023-07-13T03:15:57;6.63;;;2.10;;
20170;SDS011;10245;51.344;6.620;2023-07-13T03:18:21;5.32;;;1.88;;
20170;SDS011;10245;51.344;6.620;2023-07-13T03:20:46;8.93;;;2.30;;
20170;SDS011;10245;51.344;6.620;2023-07-13T03:23:13;4.75;;;2.10;;
20170;SDS011;10245;51.344;6.620;2023-07-13T03:25:36;5.80;;;1.90;;
20170;SDS011;10245;51.344;6.620;2023-07-13T03:27:59;7.15;;;1.92;;
20170;SDS011;10245;51.344;6.620;2023-07-13T03:30:24;4.50;;;2.20;;
20170;SDS011;10245;51.344;6.620;2023-07-13T03:32:47;7.65;;;2.10;;
20170;SDS011;10245;51.344;6.620;2023-07-13T03:35:11;5.43;;;2.13;;
20170;SDS011;10245;51.344;6.620;2023-07-13T03:37:36;7.93;;;2.38;;
20170;SDS011;10245;51.344;6.620;2023-07-13T03:40:09;7.88;;;2.08;;
20170;SDS011;10245;51.344;6.620;2023-07-13T03:42:33;10.52;;;2.42;;
20170;SDS011;10245;51.344;6.620;2023-07-13T03:44:57;8.82;;;2.60;;
20170;SDS011;10245;51.344;6.620;2023-07-13T03:47:20;8.35;;;2.72;;
20170;SDS011;10245;51.344;6.620;2023-07-13T03:49:44;10.43;;;2.30;;
20170;SDS011;10245;51.344;6.620;2023-07-13T03:52:08;7.68;;;2.83;;
20170;SDS011;10245;51.344;6.620;2023-07-13T03:54:32;5.47;;;2.28;;
20170;SDS011;10245;51.344;6.620;2023-07-13T03:56:56;8.05;;;2.53;;
20170;SDS011;10245;51.344;6.620;2023-07-13T03:59:20;7.18;;;3.03;;
20170;SDS011;10245;51.344;6.620;2023-07-13T04:01:43;7.32;;;2.75;;
20170;SDS011;10245;51.344;6.620;2023-07-13T04:04:07;5.80;;;2.22;;
20170;SDS011;10245;51.344;6.620;2023-07-13T04:06:30;8.00;;;2.47;;
20170;SDS011;10245;51.344;6.620;2023-07-13T04:08:55;8.05;;;2.20;;
20170;SDS011;10245;51.344;6.620;2023-07-13T04:11:23;9.40;;;2.80;;
20170;SDS011;10245;51.344;6.620;2023-07-13T04:13:48;8.70;;;2.50;;
20170;SDS011;10245;51.344;6.620;2023-07-13T04:16:12;10.20;;;2.83;;
20170;SDS011;10245;51.344;6.620;2023-07-13T04:18:36;10.30;;;2.72;;
20170;SDS011;10245;51.344;6.620;2023-07-13T04:20:59;8.45;;;2.88;;
20170;SDS011;10245;51.344;6.620;2023-07-13T04:23:23;5.15;;;1.90;;
20170;SDS011;10245;51.344;6.620;2023-07-13T04:25:46;5.72;;;2.60;;
20170;SDS011;10245;51.344;6.620;2023-07-13T04:28:15;12.27;;;2.60;;
20170;SDS011;10245;51.344;6.620;2023-07-13T04:30:39;7.88;;;2.55;;
20170;SDS011;10245;51.344;6.620;2023-07-13T04:33:02;8.63;;;2.53;;
20170;SDS011;10245;51.344;6.620;2023-07-13T04:35:26;7.05;;;2.42;;
20170;SDS011;10245;51.344;6.620;2023-07-13T04:37:49;7.68;;;2.63;;
20170;SDS011;10245;51.344;6.620;2023-07-13T04:40:12;7.78;;;2.50;;
20170;SDS011;10245;51.344;6.620;2023-07-13T04:42:36;8.32;;;2.65;;
20170;SDS011;10245;51.344;6.620;2023-07-13T04:45:00;8.15;;;2.78;;
20170;SDS011;10245;51.344;6.620;2023-07-13T04:47:23;7.93;;;2.88;;
20170;SDS011;10245;51.344;6.620;2023-07-13T04:49:47;8.73;;;2.47;;
20170;SDS011;10245;51.344;6.620;2023-07-13T04:52:10;7.07;;;2.50;;
20170;SDS011;10245;51.344;6.620;2023-07-13T04:54:34;7.70;;;2.70;;
20170;SDS011;10245;51.344;6.620;2023-07-13T04:56:58;7.43;;;2.50;;
20170;SDS011;10245;51.344;6.620;2023-07-13T04:59:22;10.27;;;2.85;;
20170;SDS011;10245;51.344;6.620;2023-07-13T05:01:47;10.38;;;3.03;;
20170;SDS011;10245;51.344;6.620;2023-07-13T05:04:10;9.23;;;3.05;;
20170;SDS011;10245;51.344;6.620;2023-07-13T05:06:33;11.43;;;3.03;;
20170;SDS011;10245;51.344;6.620;2023-07-13T05:08:57;9.50;;;3.00;;
20170;SDS011;10245;51.344;6.620;2023-07-13T05:11:20;9.02;;;3.22;;
20170;SDS011;10245;51.344;6.620;2023-07-13T05:13:44;9.45;;;3.03;;
20170;SDS011;10245;51.344;6.620;2023-07-13T05:16:07;7.35;;;2.83;;
20170;SDS011;10245;51.344;6.620;2023-07-13T05:18:32;9.75;;;3.30;;
20170;SDS011;10245;51.344;6.620;2023-07-13T05:20:59;11.18;;;3.28;;
20170;SDS011;10245;51.344;6.620;2023-07-13T05:23:24;9.98;;;3.22;;
20170;SDS011;10245;51.344;6.620;2023-07-13T05:25:48;12.05;;;3.67;;
20170;SDS011;10245;51.344;6.620;2023-07-13T05:28:11;10.52;;;3.00;;
20170;SDS011;10245;51.344;6.620;2023-07-13T05:30:34;9.82;;;3.22;;
20170;SDS011;10245;51.344;6.620;2023-07-13T05:32:58;8.00;;;3.10;;
20170;SDS011;10245;51.344;6.620;2023-07-13T05:35:22;8.50;;;3.13;;
20170;SDS011;10245;51.344;6.620;2023-07-13T05:37:46;8.55;;;3.05;;
20170;SDS011;10245;51.344;6.620;2023-07-13T05:40:09;8.40;;;3.15;;
20170;SDS011;10245;51.344;6.620;2023-07-13T05:42:33;8.98;;;2.90;;
20170;SDS011;10245;51.344;6.620;2023-07-13T05:44:56;9.85;;;2.95;;
20170;SDS011;10245;51.344;6.620;2023-07-13T05:47:20;13.10;;;3.58;;
20170;SDS011;10245;51.344;6.620;2023-07-13T05:49:43;9.98;;;3.25;;
20170;SDS011;10245;51.344;6.620;2023-07-13T05:52:08;10.77;;;3.72;;
20170;SDS011;10245;51.344;6.620;2023-07-13T05:54:31;8.57;;;2.88;;
20170;SDS011;10245;51.344;6.620;2023-07-13T05:56:54;11.82;;;3.33;;
20170;SDS011;10245;51.344;6.620;2023-07-13T05:59:17;9.10;;;3.28;;
20170;SDS011;10245;51.344;6.620;2023-07-13T06:01:41;10.27;;;3.38;;
20170;SDS011;10245;51.344;6.620;2023-07-13T06:04:04;12.40;;;3.50;;
20170;SDS011;10245;51.344;6.620;2023-07-13T06:06:28;16.52;;;3.95;;
20170;SDS011;10245;51.344;6.620;2023-07-13T06:08:52;8.60;;;4.20;;
20170;SDS011;10245;51.344;6.620;2023-07-13T06:11:17;9.00;;;3.92;;
20170;SDS011;10245;51.344;6.620;2023-07-13T06:13:42;7.78;;;3.85;;
20170;SDS011;10245;51.344;6.620;2023-07-13T06:16:05;7.78;;;3.63;;
20170;SDS011;10245;51.344;6.620;2023-07-13T06:18:30;14.45;;;3.80;;
20170;SDS011;10245;51.344;6.620;2023-07-13T06:20:54;11.27;;;3.97;;
20170;SDS011;10245;51.344;6.620;2023-07-13T06:23:17;12.52;;;3.80;;
20170;SDS011;10245;51.344;6.620;2023-07-13T06:25:42;9.02;;;4.05;;
20170;SDS011;10245;51.344;6.620;2023-07-13T06:28:06;13.60;;;4.65;;
20170;SDS011;10245;51.344;6.620;2023-07-13T06:30:29;12.52;;;4.25;;
20170;SDS011;10245;51.344;6.620;2023-07-13T06:32:53;9.82;;;4.32;;
20170;SDS011;10245;51.344;6.620;2023-07-13T06:35:17;10.85;;;4.93;;
20170;SDS011;10245;51.344;6.620;2023-07-13T06:37:40;14.48;;;4.55;;
20170;SDS011;10245;51.344;6.620;2023-07-13T06:40:05;11.73;;;4.30;;
20170;SDS011;10245;51.344;6.620;2023-07-13T06:42:32;12.63;;;4.63;;
20170;SDS011;10245;51.344;6.620;2023-07-13T06:44:56;16.35;;;4.97;;
20170;SDS011;10245;51.344;6.620;2023-07-13T06:47:19;13.50;;;4.68;;
20170;SDS011;10245;51.344;6.620;2023-07-13T06:49:42;13.27;;;4.82;;
20170;SDS011;10245;51.344;6.620;2023-07-13T06:52:06;14.13;;;4.60;;
20170;SDS011;10245;51.344;6.620;2023-07-13T06:54:29;13.38;;;5.15;;
20170;SDS011;10245;51.344;6.620;2023-07-13T06:56:52;11.90;;;4.47;;
20170;SDS011;10245;51.344;6.620;2023-07-13T06:59:18;11.75;;;4.43;;
20170;SDS011;10245;51.344;6.620;2023-07-13T07:01:42;16.40;;;5.68;;
20170;SDS011;10245;51.344;6.620;2023-07-13T07:04:05;17.02;;;5.80;;
20170;SDS011;10245;51.344;6.620;2023-07-13T07:06:29;12.10;;;5.00;;
20170;SDS011;10245;51.344;6.620;2023-07-13T07:08:52;16.20;;;5.47;;
20170;SDS011;10245;51.344;6.620;2023-07-13T07:11:16;12.60;;;5.10;;
20170;SDS011;10245;51.344;6.620;2023-07-13T07:13:43;11.52;;;5.18;;
20170;SDS011;10245;51.344;6.620;2023-07-13T07:16:08;13.00;;;4.50;;
20170;SDS011;10245;51.344;6.620;2023-07-13T07:18:32;14.32;;;4.45;;
20170;SDS011;10245;51.344;6.620;2023-07-13T07:20:55;12.82;;;4.65;;
20170;SDS011;10245;51.344;6.620;2023-07-13T07:23:19;12.23;;;4.70;;
20170;SDS011;10245;51.344;6.620;2023-07-13T07:25:42;12.50;;;4.55;;
20170;SDS011;10245;51.344;6.620;2023-07-13T07:28:06;11.93;;;4.82;;
20170;SDS011;10245;51.344;6.620;2023-07-13T07:30:32;11.23;;;4.65;;
20170;SDS011;10245;51.344;6.620;2023-07-13T07:33:00;13.30;;;4.88;;
20170;SDS011;10245;51.344;6.620;2023-07-13T07:35:26;11.75;;;4.43;;
20170;SDS011;10245;51.344;6.620;2023-07-13T07:37:53;10.77;;;4.15;;
20170;SDS011;10245;51.344;6.620;2023-07-13T07:40:16;10.27;;;4.43;;
20170;SDS011;10245;51.344;6.620;2023-07-13T07:42:43;14.02;;;4.43;;
20170;SDS011;10245;51.344;6.620;2023-07-13T07:45:06;12.13;;;4.20;;
20170;SDS011;10245;51.344;6.620;2023-07-13T07:47:32;11.85;;;4.47;;
20170;SDS011;10245;51.344;6.620;2023-07-13T07:49:57;14.57;;;4.65;;
20170;SDS011;10245;51.344;6.620;2023-07-13T07:52:20;11.23;;;4.00;;
20170;SDS011;10245;51.344;6.620;2023-07-13T07:54:43;9.77;;;4.55;;
20170;SDS011;10245;51.344;6.620;2023-07-13T07:57:09;11.43;;;4.32;;
20170;SDS011;10245;51.344;6.620;2023-07-13T07:59:36;9.68;;;3.85;;
20170;SDS011;10245;51.344;6.620;2023-07-13T08:02:02;10.70;;;3.92;;
20170;SDS011;10245;51.344;6.620;2023-07-13T08:04:29;11.85;;;3.97;;
20170;SDS011;10245;51.344;6.620;2023-07-13T08:06:57;12.77;;;4.13;;
20170;SDS011;10245;51.344;6.620;2023-07-13T08:09:20;13.25;;;4.55;;
20170;SDS011;10245;51.344;6.620;2023-07-13T08:11:43;8.55;;;3.63;;
20170;SDS011;10245;51.344;6.620;2023-07-13T08:14:09;14.15;;;4.32;;
20170;SDS011;10245;51.344;6.620;2023-07-13T08:16:33;7.90;;;3.20;;
20170;SDS011;10245;51.344;6.620;2023-07-13T08:18:56;10.27;;;3.60;;
20170;SDS011;10245;51.344;6.620;2023-07-13T08:21:19;10.70;;;3.88;;
20170;SDS011;10245;51.344;6.620;2023-07-13T08:23:45;8.52;;;3.95;;
20170;SDS011;10245;51.344;6.620;2023-07-13T08:26:09;11.88;;;3.63;;
20170;SDS011;10245;51.344;6.620;2023-07-13T08:28:32;8.73;;;3.80;;
20170;SDS011;10245;51.344;6.620;2023-07-13T08:31:00;13.02;;;4.15;;
20170;SDS011;10245;51.344;6.620;2023-07-13T08:33:24;9.80;;;4.22;;
20170;SDS011;10245;51.344;6.620;2023-07-13T08:35:47;11.23;;;3.83;;
20170;SDS011;10245;51.344;6.620;2023-07-13T08:38:10;8.38;;;3.95;;
20170;SDS011;10245;51.344;6.620;2023-07-13T08:40:35;10.63;;;4.10;;
20170;SDS011;10245;51.344;6.620;2023-07-13T08:42:58;9.05;;;3.75;;
20170;SDS011;10245;51.344;6.620;2023-07-13T08:45:22;7.65;;;3.53;;
20170;SDS011;10245;51.344;6.620;2023-07-13T08:47:53;12.20;;;4.38;;
20170;SDS011;10245;51.344;6.620;2023-07-13T08:50:25;11.15;;;3.85;;
20170;SDS011;10245;51.344;6.620;2023-07-13T08:53:07;9.85;;;3.80;;
20170;SDS011;10245;51.344;6.620;2023-07-13T08:55:36;8.00;;;3.90;;
20170;SDS011;10245;51.344;6.620;2023-07-13T08:58:01;10.75;;;4.55;;
20170;SDS011;10245;51.344;6.620;2023-07-13T09:00:34;11.63;;;4.20;;
20170;SDS011;10245;51.344;6.620;2023-07-13T09:03:06;9.60;;;3.88;;
20170;SDS011;10245;51.344;6.620;2023-07-13T09:05:41;10.57;;;4.07;;
20170;SDS011;10245;51.344;6.620;2023-07-13T09:08:08;11.98;;;4.22;;
20170;SDS011;10245;51.344;6.620;2023-07-13T09:10:52;13.25;;;4.38;;
20170;SDS011;10245;51.344;6.620;2023-07-13T09:13:23;10.35;;;3.60;;
20170;SDS011;10245;51.344;6.620;2023-07-13T09:15:53;13.18;;;4.10;;
20170;SDS011;10245;51.344;6.620;2023-07-13T09:18:19;12.48;;;4.47;;
20170;SDS011;10245;51.344;6.620;2023-07-13T09:20:53;11.00;;;4.07;;
20170;SDS011;10245;51.344;6.620;2023-07-13T09:23:20;11.48;;;4.20;;
20170;SDS011;10245;51.344;6.620;2023-07-13T09:25:47;8.77;;;4.05;;
20170;SDS011;10245;51.344;6.620;2023-07-13T09:28:18;12.43;;;3.70;;
20170;SDS011;10245;51.344;6.620;2023-07-13T09:30:46;12.93;;;4.22;;
20170;SDS011;10245;51.344;6.620;2023-07-13T09:33:16;8.75;;;3.58;;
20170;SDS011;10245;51.344;6.620;2023-07-13T09:35:44;16.30;;;4.60;;
20170;SDS011;10245;51.344;6.620;2023-07-13T09:38:11;12.27;;;3.85;;
20170;SDS011;10245;51.344;6.620;2023-07-13T09:40:39;10.45;;;4.25;;
20170;SDS011;10245;51.344;6.620;2023-07-13T09:43:13;6.53;;;3.33;;
20170;SDS011;10245;51.344;6.620;2023-07-13T09:45:39;13.13;;;3.47;;
20170;SDS011;10245;51.344;6.620;2023-07-13T09:48:06;9.77;;;3.75;;
20170;SDS011;10245;51.344;6.620;2023-07-13T09:50:34;11.63;;;3.38;;
20170;SDS011;10245;51.344;6.620;2023-07-13T09:52:58;8.50;;;3.72;;
20170;SDS011;10245;51.344;6.620;2023-07-13T09:55:26;8.15;;;3.20;;
20170;SDS011;10245;51.344;6.620;2023-07-13T09:57:52;10.32;;;3.85;;
20170;SDS011;10245;51.344;6.620;2023-07-13T10:00:19;9.10;;;4.07;;
20170;SDS011;10245;51.344;6.620;2023-07-13T10:02:46;9.40;;;3.58;;
20170;SDS011;10245;51.344;6.620;2023-07-13T10:05:23;9.57;;;3.35;;
20170;SDS011;10245;51.344;6.620;2023-07-13T10:07:47;9.52;;;3.58;;
20170;SDS011;10245;51.344;6.620;2023-07-13T10:10:13;7.28;;;3.15;;
20170;SDS011;10245;51.344;6.620;2023-07-13T10:12:38;7.88;;;3.28;;
20170;SDS011;10245;51.344;6.620;2023-07-13T10:15:02;8.30;;;3.40;;
20170;SDS011;10245;51.344;6.620;2023-07-13T10:17:45;10.23;;;3.78;;
20170;SDS011;10245;51.344;6.620;2023-07-13T10:20:09;12.25;;;3.63;;
20170;SDS011;10245;51.344;6.620;2023-07-13T10:22:36;17.00;;;6.30;;
20170;SDS011;10245;51.344;6.620;2023-07-13T10:25:12;7.90;;;3.28;;
20170;SDS011;10245;51.344;6.620;2023-07-13T10:27:39;9.73;;;3.35;;
20170;SDS011;10245;51.344;6.620;2023-07-13T10:30:05;6.28;;;3.15;;
20170;SDS011;10245;51.344;6.620;2023-07-13T10:32:37;4.65;;;2.80;;
20170;SDS011;10245;51.344;6.620;2023-07-13T10:35:03;7.75;;;3.25;;
20170;SDS011;10245;51.344;6.620;2023-07-13T10:37:29;7.55;;;3.20;;
20170;SDS011;10245;51.344;6.620;2023-07-13T10:40:01;8.52;;;3.20;;
20170;SDS011;10245;51.344;6.620;2023-07-13T10:42:29;9.13;;;3.38;;
20170;SDS011;10245;51.344;6.620;2023-07-13T10:44:57;7.63;;;3.22;;
20170;SDS011;10245;51.344;6.620;2023-07-13T10:47:21;8.73;;;2.90;;
20170;SDS011;10245;51.344;6.620;2023-07-13T10:49:46;9.30;;;3.17;;
20170;SDS011;10245;51.344;6.620;2023-07-13T10:55:14;7.97;;;3.00;;
20170;SDS011;10245;51.344;6.620;2023-07-13T10:58:01;6.45;;;2.65;;
20170;SDS011;10245;51.344;6.620;2023-07-13T11:00:42;7.03;;;2.92;;
20170;SDS011;10245;51.344;6.620;2023-07-13T11:03:10;7.03;;;3.10;;
20170;SDS011;10245;51.344;6.620;2023-07-13T11:05:39;6.75;;;2.58;;
20170;SDS011;10245;51.344;6.620;2023-07-13T11:08:12;9.65;;;3.60;;
20170;SDS011;10245;51.344;6.620;2023-07-13T11:10:48;6.70;;;3.35;;
20170;SDS011;10245;51.344;6.620;2023-07-13T11:22:03;5.72;;;2.83;;
20170;SDS011;10245;51.344;6.620;2023-07-13T11:24:49;9.23;;;2.50;;
20170;SDS011;10245;51.344;6.620;2023-07-13T11:27:31;6.57;;;2.30;;
20170;SDS011;10245;51.344;6.620;2023-07-13T11:33:10;6.90;;;2.55;;
20170;SDS011;10245;51.344;6.620;2023-07-13T11:35:44;4.45;;;2.13;;
20170;SDS011;10245;51.344;6.620;2023-07-13T11:38:14;9.30;;;2.40;;
20170;SDS011;10245;51.344;6.620;2023-07-13T11:40:43;8.13;;;2.30;;
20170;SDS011;10245;51.344;6.620;2023-07-13T11:43:15;5.78;;;2.28;;
20170;SDS011;10245;51.344;6.620;2023-07-13T11:45:39;7.93;;;2.40;;
20170;SDS011;10245;51.344;6.620;2023-07-13T11:48:18;6.90;;;2.30;;
20170;SDS011;10245;51.344;6.620;2023-07-13T11:50:48;5.65;;;2.30;;
20170;SDS011;10245;51.344;6.620;2023-07-13T11:53:15;7.07;;;2.63;;
20170;SDS011;10245;51.344;6.620;2023-07-13T11:55:38;7.97;;;2.83;;
20170;SDS011;10245;51.344;6.620;2023-07-13T11:58:03;7.22;;;2.25;;
20170;SDS011;10245;51.344;6.620;2023-07-13T12:00:28;6.45;;;2.13;;
20170;SDS011;10245;51.344;6.620;2023-07-13T12:02:56;5.45;;;2.50;;
20170;SDS011;10245;51.344;6.620;2023-07-13T12:05:22;5.00;;;2.35;;
20170;SDS011;10245;51.344;6.620;2023-07-13T12:07:46;4.55;;;2.28;;
20170;SDS011;10245;51.344;6.620;2023-07-13T12:10:16;7.05;;;2.10;;
20170;SDS011;10245;51.344;6.620;2023-07-13T12:12:46;7.10;;;2.20;;
20170;SDS011;10245;51.344;6.620;2023-07-13T12:15:14;4.30;;;2.00;;
20170;SDS011;10245;51.344;6.620;2023-07-13T12:17:37;2.92;;;1.90;;
20170;SDS011;10245;51.344;6.620;2023-07-13T12:20:03;9.48;;;2.10;;
20170;SDS011;10245;51.344;6.620;2023-07-13T12:22:45;7.38;;;2.00;;
20170;SDS011;10245;51.344;6.620;2023-07-13T12:25:11;5.32;;;1.98;;
20170;SDS011;10245;51.344;6.620;2023-07-13T12:27:35;6.07;;;2.17;;
20170;SDS011;10245;51.344;6.620;2023-07-13T12:29:59;5.22;;;2.20;;
20170;SDS011;10245;51.344;6.620;2023-07-13T12:32:28;6.65;;;2.10;;
20170;SDS011;10245;51.344;6.620;2023-07-13T12:34:53;4.80;;;2.10;;
20170;SDS011;10245;51.344;6.620;2023-07-13T12:37:19;5.95;;;2.10;;
20170;SDS011;10245;51.344;6.620;2023-07-13T12:39:43;3.97;;;2.15;;
20170;SDS011;10245;51.344;6.620;2023-07-13T12:42:14;5.03;;;2.10;;
20170;SDS011;10245;51.344;6.620;2023-07-13T12:44:45;10.77;;;2.00;;
20170;SDS011;10245;51.344;6.620;2023-07-13T12:47:14;5.07;;;1.92;;
20170;SDS011;10245;51.344;6.620;2023-07-13T12:49:42;4.25;;;1.80;;
20170;SDS011;10245;51.344;6.620;2023-07-13T12:52:14;5.25;;;2.17;;
20170;SDS011;10245;51.344;6.620;2023-07-13T12:54:39;5.07;;;1.75;;
20170;SDS011;10245;51.344;6.620;2023-07-13T12:57:16;8.00;;;2.10;;
20170;SDS011;10245;51.344;6.620;2023-07-13T12:59:40;3.63;;;1.63;;
20170;SDS011;10245;51.344;6.620;2023-07-13T13:02:09;3.97;;;1.85;;
20170;SDS011;10245;51.344;6.620;2023-07-13T13:04:50;4.75;;;1.98;;
20170;SDS011;10245;51.344;6.620;2023-07-13T13:07:16;3.75;;;1.60;;
20170;SDS011;10245;51.344;6.620;2023-07-13T13:09:41;7.32;;;2.33;;
20170;SDS011;10245;51.344;6.620;2023-07-13T13:12:05;6.13;;;2.05;;
20170;SDS011;10245;51.344;6.620;2023-07-13T13:14:29;7.90;;;2.20;;
20170;SDS011;10245;51.344;6.620;2023-07-13T13:16:52;5.47;;;1.85;;
20170;SDS011;10245;51.344;6.620;2023-07-13T13:19:17;5.45;;;2.00;;
20170;SDS011;10245;51.344;6.620;2023-07-13T13:21:45;4.13;;;1.95;;
20170;SDS011;10245;51.344;6.620;2023-07-13T13:24:10;4.65;;;1.98;;
20170;SDS011;10245;51.344;6.620;2023-07-13T13:26:34;7.50;;;2.00;;
20170;SDS011;10245;51.344;6.620;2023-07-13T13:28:57;5.32;;;1.80;;
20170;SDS011;10245;51.344;6.620;2023-07-13T13:31:20;4.35;;;2.05;;
20170;SDS011;10245;51.344;6.620;2023-07-13T13:33:44;6.28;;;2.58;;
20170;SDS011;10245;51.344;6.620;2023-07-13T13:36:13;4.65;;;1.92;;
20170;SDS011;10245;51.344;6.620;2023-07-13T13:38:39;6.55;;;2.15;;
20170;SDS011;10245;51.344;6.620;2023-07-13T13:41:03;6.50;;;1.85;;
20170;SDS011;10245;51.344;6.620;2023-07-13T13:43:26;5.00;;;2.13;;
20170;SDS011;10245;51.344;6.620;2023-07-13T13:45:50;4.82;;;1.90;;
20170;SDS011;10245;51.344;6.620;2023-07-13T13:48:14;5.43;;;2.00;;
20170;SDS011;10245;51.344;6.620;2023-07-13T13:50:40;2.97;;;1.73;;
20170;SDS011;10245;51.344;6.620;2023-07-13T13:53:03;7.13;;;1.90;;
20170;SDS011;10245;51.344;6.620;2023-07-13T13:55:27;4.85;;;1.70;;
20170;SDS011;10245;51.344;6.620;2023-07-13T13:57:51;5.18;;;1.90;;
20170;SDS011;10245;51.344;6.620;2023-07-13T14:00:15;6.85;;;2.20;;
20170;SDS011;10245;51.344;6.620;2023-07-13T14:02:41;5.32;;;1.70;;
20170;SDS011;10245;51.344;6.620;2023-07-13T14:05:09;5.90;;;2.00;;
20170;SDS011;10245;51.344;6.620;2023-07-13T14:07:35;4.00;;;2.25;;
20170;SDS011;10245;51.344;6.620;2023-07-13T14:09:58;3.15;;;1.70;;
20170;SDS011;10245;51.344;6.620;2023-07-13T14:12:24;4.88;;;1.50;;
20170;SDS011;10245;51.344;6.620;2023-07-13T14:14:49;3.67;;;1.63;;
20170;SDS011;10245;51.344;6.620;2023-07-13T14:17:17;5.45;;;1.98;;
20170;SDS011;10245;51.344;6.620;2023-07-13T14:19:44;6.15;;;2.20;;
20170;SDS011;10245;51.344;6.620;2023-07-13T14:22:07;3.25;;;1.92;;
20170;SDS011;10245;51.344;6.620;2023-07-13T14:24:30;3.33;;;1.60;;
20170;SDS011;10245;51.344;6.620;2023-07-13T14:26:54;7.22;;;2.00;;
20170;SDS011;10245;51.344;6.620;2023-07-13T14:29:19;6.82;;;1.83;;
20170;SDS011;10245;51.344;6.620;2023-07-13T14:31:45;6.20;;;2.15;;
20170;SDS011;10245;51.344;6.620;2023-07-13T14:34:09;4.85;;;2.00;;
20170;SDS011;10245;51.344;6.620;2023-07-13T14:36:37;7.43;;;2.25;;
20170;SDS011;10245;51.344;6.620;2023-07-13T14:39:05;4.88;;;1.80;;
20170;SDS011;10245;51.344;6.620;2023-07-13T14:41:35;4.05;;;2.00;;
20170;SDS011;10245;51.344;6.620;2023-07-13T14:43:59;5.22;;;1.88;;
20170;SDS011;10245;51.344;6.620;2023-07-13T14:46:26;6.55;;;2.28;;
20170;SDS011;10245;51.344;6.620;2023-07-13T14:48:52;4.25;;;2.33;;
20170;SDS011;10245;51.344;6.620;2023-07-13T14:51:22;5.57;;;2.20;;
20170;SDS011;10245;51.344;6.620;2023-07-13T14:53:46;6.97;;;1.90;;
20170;SDS011;10245;51.344;6.620;2023-07-13T14:56:10;5.88;;;2.50;;
20170;SDS011;10245;51.344;6.620;2023-07-13T14:58:34;9.52;;;2.30;;